createdAt,value
2023-01-13T00:00:22.208Z,65.11
2023-01-13T00:02:52.653Z,65.38
2023-01-13T00:05:22.846Z,64.80
2023-01-13T00:07:52.292Z,64.84
2023-01-13T00:10:22.102Z,65.47
2023-01-13T00:12:52.731Z,66.13
2023-01-13T00:15:22.906Z,66.16
2023-01-13T00:17:53.201Z,66.55
2023-01-13T00:20:23.740Z,66.49
2023-01-13T00:22:54.022Z,66.73
2023-01-13T00:25:24.339Z,66.36
2023-01-13T00:27:54.493Z,66.74
2023-01-13T00:30:24.678Z,67.24
2023-01-13T00:32:55.055Z,67.08
2023-01-13T00:35:25.293Z,67.27
2023-01-13T00:37:55.468Z,67.94
2023-01-13T00:40:25.641Z,68.35
2023-01-13T00:43:13.846Z,68.46
2023-01-13T00:45:45.096Z,68.17
2023-01-13T00:48:15.244Z,68.47
2023-01-13T00:50:45.483Z,68.88
2023-01-13T00:53:16.066Z,69.74
2023-01-13T00:55:46.997Z,69.62
2023-01-13T00:58:17.163Z,69.90
2023-01-13T01:00:47.066Z,69.20
2023-01-13T01:03:17.220Z,70.61
2023-01-13T01:05:47.450Z,70.85
2023-01-13T01:08:17.417Z,71.63
2023-01-13T01:10:46.878Z,71.06
2023-01-13T01:13:18.691Z,71.93
2023-01-13T01:15:49.405Z,72.31
2023-01-13T01:18:19.629Z,72.20
2023-01-13T01:20:49.834Z,72.65
2023-01-13T01:23:19.528Z,71.94
2023-01-13T01:25:49.477Z,72.28
2023-01-13T01:28:21.797Z,72.36
2023-01-13T01:30:52.778Z,71.99
2023-01-13T01:33:23.575Z,72.43
2023-01-13T01:35:54.502Z,71.59
2023-01-13T01:38:24.653Z,71.78
2023-01-13T01:40:54.090Z,70.82
2023-01-13T01:44:08.144Z,71.38
2023-01-13T01:46:38.427Z,71.73
2023-01-13T01:49:20.561Z,71.57
2023-01-13T01:52:11.959Z,71.78
2023-01-13T01:54:54.154Z,72.06
2023-01-13T01:57:31.503Z,71.81
2023-01-13T02:00:02.657Z,71.49
2023-01-13T02:02:43.349Z,72.12
2023-01-13T02:05:14.038Z,72.40
2023-01-13T02:07:47.472Z,72.03
2023-01-13T02:10:21.510Z,71.49
2023-01-13T02:12:54.118Z,71.69
2023-01-13T02:15:49.818Z,71.73
2023-01-13T02:18:39.602Z,71.33
2023-01-13T02:21:27.941Z,71.29
2023-01-13T02:24:24.768Z,71.43
2023-01-13T02:27:22.942Z,71.41
2023-01-13T02:30:20.625Z,71.65
2023-01-13T02:33:33.387Z,71.21
2023-01-13T02:36:38.542Z,71.59
2023-01-13T02:39:42.945Z,71.47
2023-01-13T02:42:41.868Z,72.49
2023-01-13T02:45:18.179Z,71.86
2023-01-13T02:47:51.447Z,72.17
2023-01-13T02:50:30.487Z,72.63
2023-01-13T02:53:06.867Z,72.77
2023-01-13T02:55:41.896Z,73.34
2023-01-13T02:58:17.017Z,72.28
2023-01-13T03:00:48.378Z,72.64
2023-01-13T03:03:18.709Z,73.15
2023-01-13T03:05:53.154Z,73.21
2023-01-13T03:08:48.837Z,72.81
2023-01-13T03:11:21.770Z,73.40
2023-01-13T03:14:03.677Z,73.65
2023-01-13T03:16:48.685Z,74.15
2023-01-13T03:19:32.665Z,74.15
2023-01-13T03:22:17.371Z,73.61
2023-01-13T03:24:56.746Z,74.26
2023-01-13T03:27:39.137Z,73.64
2023-01-13T03:30:11.091Z,73.34
2023-01-13T03:32:45.397Z,73.52
2023-01-13T03:35:41.186Z,73.57
2023-01-13T03:38:13.636Z,74.10
2023-01-13T03:40:52.213Z,73.48
2023-01-13T03:43:51.665Z,73.60
2023-01-13T03:46:49.188Z,73.68
2023-01-13T03:49:23.779Z,73.98
2023-01-13T03:51:58.718Z,74.23
2023-01-13T03:54:32.178Z,74.65
2023-01-13T03:57:11.825Z,74.73
2023-01-13T03:59:45.479Z,75.03
2023-01-13T04:02:18.630Z,74.87
2023-01-13T04:05:01.692Z,74.73
2023-01-13T04:07:56.632Z,74.94
2023-01-13T04:10:46.272Z,75.18
2023-01-13T04:13:23.736Z,75.10
2023-01-13T04:16:01.450Z,75.55
2023-01-13T04:18:33.274Z,75.40
2023-01-13T04:21:04.332Z,75.57
2023-01-13T04:23:35.077Z,75.77
2023-01-13T04:26:05.416Z,75.67
2023-01-13T04:28:38.039Z,75.38
2023-01-13T04:31:08.911Z,75.54
2023-01-13T04:33:39.212Z,76.79
2023-01-13T04:36:09.861Z,76.72
2023-01-13T04:38:40.329Z,76.38
2023-01-13T04:41:10.543Z,76.09
2023-01-13T04:43:40.769Z,75.42
2023-01-13T04:46:11.023Z,76.05
2023-01-13T04:48:41.248Z,76.27
2023-01-13T04:51:11.436Z,76.30
2023-01-13T04:53:41.651Z,76.03
2023-01-13T04:56:11.971Z,75.62
2023-01-13T04:58:42.191Z,76.51
2023-01-13T05:01:12.641Z,76.42
2023-01-13T05:03:42.795Z,76.34
2023-01-13T05:06:12.717Z,76.76
2023-01-13T05:08:42.191Z,76.05
2023-01-13T05:11:30.158Z,76.66
2023-01-13T05:14:18.512Z,76.64
2023-01-13T05:17:04.486Z,76.71
2023-01-13T05:19:36.957Z,76.78
2023-01-13T05:22:25.489Z,76.86
2023-01-13T05:25:13.562Z,76.13
2023-01-13T05:27:43.736Z,77.26
2023-01-13T05:30:13.434Z,76.30
2023-01-13T05:32:43.949Z,76.83
2023-01-13T05:35:14.208Z,76.81
2023-01-13T05:37:45.783Z,76.81
2023-01-13T05:40:37.003Z,76.81
2023-01-13T05:43:21.865Z,76.71
2023-01-13T05:45:58.510Z,77.06
2023-01-13T05:48:34.498Z,77.30
2023-01-13T05:51:07.475Z,77.51
2023-01-13T05:53:38.138Z,78.29
2023-01-13T05:56:09.717Z,77.94
2023-01-13T05:58:40.367Z,77.91
2023-01-13T06:01:12.108Z,76.97
2023-01-13T06:03:42.481Z,77.42
2023-01-13T06:06:12.769Z,77.62
2023-01-13T06:08:43.030Z,77.49
2023-01-13T06:11:13.233Z,77.67
2023-01-13T06:13:43.318Z,78.10
2023-01-13T06:16:13.634Z,77.90
2023-01-13T06:18:43.966Z,77.80
2023-01-13T06:21:14.265Z,77.94
2023-01-13T06:23:44.585Z,77.77
2023-01-13T06:26:22.312Z,77.79
2023-01-13T06:28:52.683Z,77.77
2023-01-13T06:31:23.192Z,77.74
2023-01-13T06:33:58.366Z,77.79
2023-01-13T06:36:33.865Z,77.59
2023-01-13T06:39:05.872Z,77.82
2023-01-13T06:41:54.406Z,77.26
2023-01-13T06:44:26.093Z,77.62
2023-01-13T06:46:56.282Z,77.41
2023-01-13T06:49:26.601Z,77.57
2023-01-13T06:51:56.733Z,77.58
2023-01-13T06:54:27.829Z,77.81
2023-01-13T06:56:58.069Z,77.99
2023-01-13T06:59:28.460Z,77.86
2023-01-13T07:01:58.782Z,77.96
2023-01-13T07:04:29.096Z,77.92
2023-01-13T07:06:58.550Z,77.49
2023-01-13T07:09:28.403Z,78.21
2023-01-13T07:11:58.647Z,78.38
2023-01-13T07:14:47.101Z,78.29
2023-01-13T07:17:17.576Z,78.65
2023-01-13T07:19:47.771Z,78.62
2023-01-13T07:22:18.003Z,78.83
2023-01-13T07:24:48.337Z,79.23
2023-01-13T07:27:18.458Z,79.10
2023-01-13T07:29:48.739Z,79.08
2023-01-13T07:32:19.013Z,79.30
2023-01-13T07:34:49.371Z,79.26
2023-01-13T07:37:19.768Z,78.97
2023-01-13T07:39:51.397Z,79.03
2023-01-13T07:42:39.439Z,79.37
2023-01-13T07:45:12.411Z,79.80
2023-01-13T07:47:43.285Z,80.42
2023-01-13T07:50:13.571Z,80.07
2023-01-13T07:52:43.874Z,80.05
2023-01-13T07:55:14.148Z,80.06
2023-01-13T07:57:44.427Z,80.52
2023-01-13T08:00:15.310Z,80.48
2023-01-13T08:02:45.693Z,81.01
2023-01-13T08:05:15.810Z,80.72
2023-01-13T08:07:45.308Z,80.38
2023-01-13T08:10:15.124Z,81.12
2023-01-13T08:13:03.038Z,81.41
2023-01-13T08:15:36.261Z,81.52
2023-01-13T08:18:06.490Z,81.20
2023-01-13T08:20:36.734Z,81.11
2023-01-13T08:23:07.455Z,81.13
2023-01-13T08:25:37.914Z,81.08
2023-01-13T08:28:07.752Z,81.11
2023-01-13T08:30:37.668Z,81.52
2023-01-13T08:33:10.955Z,80.89
2023-01-13T08:35:42.778Z,81.73
2023-01-13T08:38:13.319Z,81.70
2023-01-13T08:40:43.562Z,81.56
2023-01-13T08:43:13.776Z,81.87
2023-01-13T08:45:43.919Z,82.26
2023-01-13T08:48:14.394Z,82.12
2023-01-13T08:50:44.606Z,81.83
2023-01-13T08:53:14.880Z,82.79
2023-01-13T08:55:45.190Z,82.92
2023-01-13T08:58:16.281Z,82.34
2023-01-13T09:00:46.722Z,82.62
2023-01-13T09:03:16.981Z,82.82
2023-01-13T09:05:47.212Z,81.92
2023-01-13T09:08:17.563Z,82.37
2023-01-13T09:10:47.908Z,82.46
2023-01-13T09:13:18.432Z,81.98
2023-01-13T09:15:48.880Z,82.02
2023-01-13T09:18:19.451Z,81.71
2023-01-13T09:20:49.619Z,81.59
2023-01-13T09:23:19.949Z,81.19
2023-01-13T09:26:11.065Z,81.22
2023-01-13T09:28:41.278Z,81.87
2023-01-13T09:31:11.515Z,81.28
2023-01-13T09:33:59.857Z,81.36
2023-01-13T09:36:30.127Z,80.94
2023-01-13T09:38:59.729Z,80.14
2023-01-13T09:41:50.644Z,80.30
2023-01-13T09:44:30.929Z,80.48
2023-01-13T09:47:06.349Z,79.87
2023-01-13T09:49:38.121Z,80.21
2023-01-13T09:52:17.233Z,79.38
2023-01-13T09:55:03.263Z,79.32
2023-01-13T09:57:38.446Z,78.77
2023-01-13T10:00:15.401Z,79.40
2023-01-13T10:03:03.081Z,80.08
2023-01-13T10:05:40.557Z,80.01
2023-01-13T10:08:37.728Z,80.43
2023-01-13T10:11:47.450Z,80.28
2023-01-13T10:14:26.446Z,79.32
2023-01-13T10:17:02.324Z,79.21
2023-01-13T10:19:52.050Z,79.03
2023-01-13T10:22:58.825Z,78.82
2023-01-13T10:25:59.050Z,78.56
2023-01-13T10:28:29.362Z,78.46
2023-01-13T10:31:00.830Z,77.87
2023-01-13T10:33:31.245Z,78.32
2023-01-13T10:36:13.621Z,78.64
2023-01-13T10:38:51.813Z,78.05
2023-01-13T10:41:27.567Z,77.83
2023-01-13T10:44:01.226Z,77.45
2023-01-13T10:46:36.519Z,76.53
2023-01-13T10:49:34.305Z,77.40
2023-01-13T10:52:06.388Z,78.08
2023-01-13T10:54:37.505Z,77.35
2023-01-13T10:57:28.121Z,76.09
2023-01-13T10:59:58.447Z,76.69
2023-01-13T11:02:34.133Z,76.35
2023-01-13T11:05:33.418Z,74.63
2023-01-13T11:08:03.736Z,74.10
2023-01-13T11:10:35.304Z,73.82
2023-01-13T11:13:31.178Z,73.95
2023-01-13T11:16:20.514Z,74.15
2023-01-13T11:19:15.792Z,71.85
2023-01-13T11:21:56.792Z,70.89
2023-01-13T11:24:57.333Z,71.86
2023-01-13T11:27:36.144Z,70.03
2023-01-13T11:30:30.918Z,69.52
2023-01-13T11:33:12.946Z,68.95
2023-01-13T11:36:04.272Z,68.81
2023-01-13T11:38:44.676Z,68.60
2023-01-13T11:42:08.871Z,68.29
2023-01-13T11:45:12.839Z,66.99
2023-01-13T11:47:43.051Z,67.84
2023-01-13T11:50:32.495Z,67.66
2023-01-13T11:53:31.368Z,67.50
2023-01-13T11:56:28.499Z,66.87
2023-01-13T11:59:10.913Z,67.06
2023-01-13T12:01:56.277Z,67.79
2023-01-13T12:04:49.615Z,67.82
2023-01-13T12:07:41.923Z,66.36
2023-01-13T12:10:33.393Z,66.94
2023-01-13T12:13:30.694Z,67.32
2023-01-13T12:16:38.915Z,67.74
2023-01-13T12:19:31.421Z,68.44
2023-01-13T12:22:26.911Z,68.10
2023-01-13T12:25:22.082Z,68.72
2023-01-13T12:28:08.887Z,69.17
2023-01-13T12:30:53.315Z,67.77
2023-01-13T12:33:57.123Z,67.12
2023-01-13T12:36:30.623Z,65.47
2023-01-13T12:39:07.797Z,64.47
2023-01-13T12:42:05.496Z,63.32
2023-01-13T12:44:35.676Z,59.63
2023-01-13T12:47:06.172Z,59.57
2023-01-13T12:49:37.767Z,58.72
2023-01-13T12:52:16.529Z,60.64
2023-01-13T12:54:46.650Z,59.32
2023-01-13T12:57:28.251Z,62.00
2023-01-13T13:00:07.276Z,63.14
2023-01-13T13:02:43.533Z,64.91
2023-01-13T13:05:16.791Z,63.89
2023-01-13T13:08:11.509Z,61.28
2023-01-13T13:10:49.287Z,61.83
2023-01-13T13:13:49.586Z,60.84
2023-01-13T13:16:46.399Z,60.79
2023-01-13T13:19:22.450Z,60.20
2023-01-13T13:22:13.767Z,59.77
2023-01-13T13:24:45.045Z,59.34
2023-01-13T13:27:33.419Z,59.56
2023-01-13T13:30:13.873Z,60.61
2023-01-13T13:32:57.749Z,61.20
2023-01-13T13:35:43.363Z,60.70
2023-01-13T13:38:48.860Z,60.59
2023-01-13T13:41:40.373Z,60.12
2023-01-13T13:44:40.258Z,59.89
2023-01-13T13:47:12.972Z,59.91
2023-01-13T13:49:54.810Z,58.33
2023-01-13T13:52:38.247Z,56.49
2023-01-13T13:55:17.300Z,55.69
2023-01-13T13:57:54.019Z,54.04
2023-01-13T14:00:31.766Z,56.57
2023-01-13T14:03:04.840Z,55.38
2023-01-13T14:05:37.155Z,56.19
2023-01-13T14:08:19.866Z,55.23
2023-01-13T14:10:50.490Z,55.10
2023-01-13T14:13:26.283Z,54.33
2023-01-13T14:16:01.158Z,53.89
2023-01-13T14:18:43.570Z,54.19
2023-01-13T14:21:28.814Z,52.94
2023-01-13T14:24:12.022Z,53.94
2023-01-13T14:26:42.610Z,54.59
2023-01-13T14:29:20.230Z,55.26
2023-01-13T14:31:53.265Z,54.44
2023-01-13T14:34:28.816Z,54.58
2023-01-13T14:37:04.958Z,54.91
2023-01-13T14:39:38.966Z,53.94
2023-01-13T14:42:17.943Z,52.57
2023-01-13T14:44:51.236Z,52.45
2023-01-13T14:47:34.907Z,53.12
2023-01-13T14:50:12.458Z,53.00
2023-01-13T14:52:58.231Z,52.05
2023-01-13T14:55:38.657Z,51.52
2023-01-13T14:58:23.859Z,52.36
2023-01-13T15:01:14.973Z,51.10
2023-01-13T15:03:45.282Z,52.05
2023-01-13T15:06:27.121Z,52.49
2023-01-13T15:08:57.375Z,52.21
2023-01-13T15:11:30.602Z,52.93
2023-01-13T15:14:02.955Z,51.66
2023-01-13T15:16:34.959Z,52.59
2023-01-13T15:19:05.602Z,53.88
2023-01-13T15:21:36.427Z,51.96
2023-01-13T15:24:07.087Z,52.66
2023-01-13T15:26:37.521Z,52.05
2023-01-13T15:29:15.691Z,50.96
2023-01-13T15:31:46.018Z,50.48
2023-01-13T15:34:16.143Z,50.00
2023-01-13T15:36:46.498Z,49.37
2023-01-13T15:39:16.710Z,49.74
2023-01-13T15:42:05.087Z,49.13
2023-01-13T15:44:53.280Z,47.69
2023-01-13T15:47:26.517Z,46.88
2023-01-13T15:49:56.971Z,47.95
2023-01-13T15:52:29.384Z,46.99
2023-01-13T15:54:59.613Z,45.71
2023-01-13T15:57:40.722Z,45.75
2023-01-13T16:00:22.825Z,46.05
2023-01-13T16:02:53.592Z,46.48
2023-01-13T16:05:23.854Z,47.76
2023-01-13T16:07:54.027Z,47.82
2023-01-13T16:10:27.558Z,48.29
2023-01-13T16:12:57.850Z,50.28
2023-01-13T16:15:27.807Z,51.35
2023-01-13T16:18:08.021Z,52.43
2023-01-13T16:20:57.395Z,51.46
2023-01-13T16:23:27.503Z,49.83
2023-01-13T16:25:57.698Z,50.30
2023-01-13T16:28:29.421Z,50.10
2023-01-13T16:30:59.635Z,51.57
2023-01-13T16:33:29.590Z,52.42
2023-01-13T16:36:11.862Z,53.12
2023-01-13T16:38:43.569Z,53.25
2023-01-13T16:41:13.826Z,53.37
2023-01-13T16:43:44.408Z,54.66
2023-01-13T16:46:39.779Z,55.41
2023-01-13T16:49:13.291Z,56.47
2023-01-13T16:51:44.140Z,58.04
2023-01-13T16:54:14.793Z,58.20
2023-01-13T16:56:45.586Z,59.00
2023-01-13T16:59:16.530Z,60.01
2023-01-13T17:01:46.919Z,61.26
2023-01-13T17:04:19.922Z,62.79
2023-01-13T17:06:59.007Z,68.62
2023-01-13T17:09:30.636Z,80.90
2023-01-13T17:12:01.011Z,87.87
2023-01-13T17:14:31.145Z,90.24
2023-01-13T17:17:01.252Z,90.68
2023-01-13T17:19:31.705Z,93.89
2023-01-13T17:22:02.312Z,94.65
2023-01-13T17:24:33.821Z,94.14
2023-01-13T17:27:04.766Z,93.50
2023-01-13T17:29:35.400Z,93.28
2023-01-13T17:32:05.925Z,95.04
2023-01-13T17:34:36.160Z,92.78
2023-01-13T17:37:06.440Z,93.56
2023-01-13T17:39:36.668Z,92.55
2023-01-13T17:42:07.029Z,92.18
2023-01-13T17:44:37.238Z,90.43
2023-01-13T17:47:08.605Z,93.99
2023-01-13T17:49:39.068Z,92.33
2023-01-13T17:52:09.063Z,91.63
2023-01-13T17:54:41.378Z,93.00
2023-01-13T17:57:11.918Z,93.52
2023-01-13T17:59:42.993Z,93.56
2023-01-13T18:02:14.306Z,93.80
2023-01-13T18:04:44.760Z,92.69
2023-01-13T18:07:14.988Z,93.73
2023-01-13T18:09:45.144Z,92.68
2023-01-13T18:12:15.722Z,92.92
2023-01-13T18:14:45.787Z,92.88
2023-01-13T18:17:15.715Z,92.32
2023-01-13T18:20:04.321Z,92.98
2023-01-13T18:22:52.162Z,93.04
2023-01-13T18:25:40.527Z,94.83
2023-01-13T18:28:10.709Z,94.54
2023-01-13T18:30:41.084Z,94.78
2023-01-13T18:33:11.296Z,94.49
2023-01-13T18:35:41.679Z,93.98
2023-01-13T18:38:17.711Z,94.79
2023-01-13T18:40:47.969Z,94.33
2023-01-13T18:43:18.230Z,94.45
2023-01-13T18:45:52.562Z,94.28
2023-01-13T18:48:22.659Z,94.73
2023-01-13T18:50:52.605Z,93.79
2023-01-13T18:53:22.774Z,94.93
2023-01-13T18:55:56.320Z,93.46
2023-01-13T18:58:26.644Z,95.03
2023-01-13T19:01:04.987Z,95.00
2023-01-13T19:03:35.346Z,94.89
2023-01-13T19:06:08.845Z,94.51
2023-01-13T19:08:39.432Z,94.84
2023-01-13T19:11:09.681Z,94.78
2023-01-13T19:13:39.876Z,95.19
2023-01-13T19:16:11.437Z,94.28
2023-01-13T19:18:41.619Z,93.81
2023-01-13T19:21:12.179Z,94.11
2023-01-13T19:23:42.816Z,95.37
2023-01-13T19:26:14.240Z,94.89
2023-01-13T19:28:44.457Z,94.11
2023-01-13T19:31:14.175Z,93.56
2023-01-13T19:33:44.960Z,94.66
2023-01-13T19:36:16.368Z,94.80
2023-01-13T19:38:46.652Z,94.31
2023-01-13T19:41:42.630Z,94.52
2023-01-13T19:44:34.108Z,95.23
2023-01-13T19:47:05.161Z,94.97
2023-01-13T19:49:35.701Z,94.21
2023-01-13T19:52:06.184Z,94.83
2023-01-13T19:54:36.696Z,94.59
2023-01-13T19:57:07.245Z,94.33
2023-01-13T19:59:42.164Z,94.73
2023-01-13T20:02:29.717Z,94.84
2023-01-13T20:05:02.049Z,94.55
2023-01-13T20:07:33.273Z,94.01
2023-01-13T20:10:03.959Z,94.39
2023-01-13T20:12:34.129Z,94.37
2023-01-13T20:15:04.471Z,94.09
2023-01-13T20:17:34.699Z,94.17
2023-01-13T20:20:06.488Z,94.01
2023-01-13T20:22:38.606Z,93.50
2023-01-13T20:25:09.940Z,93.32
2023-01-13T20:27:41.080Z,93.56
2023-01-13T20:30:14.744Z,93.79
2023-01-13T20:32:46.012Z,94.30
2023-01-13T20:35:16.782Z,91.67
2023-01-13T20:37:47.076Z,93.03
2023-01-13T20:40:17.738Z,93.73
2023-01-13T20:42:48.464Z,94.11
2023-01-13T20:45:21.991Z,93.91
2023-01-13T20:47:52.183Z,93.84
2023-01-13T20:50:22.691Z,94.26
2023-01-13T20:52:53.793Z,94.74
2023-01-13T20:55:43.342Z,94.38
2023-01-13T20:58:13.976Z,95.45
2023-01-13T21:00:44.611Z,94.95
2023-01-13T21:03:15.106Z,94.19
2023-01-13T21:05:45.401Z,94.71
2023-01-13T21:08:15.781Z,95.21
2023-01-13T21:10:46.946Z,94.75
2023-01-13T21:13:35.396Z,95.43
2023-01-13T21:16:05.965Z,95.32
2023-01-13T21:18:54.396Z,95.31
2023-01-13T21:21:24.761Z,95.91
2023-01-13T21:23:55.394Z,95.49
2023-01-13T21:26:25.646Z,96.31
2023-01-13T21:29:03.578Z,95.11
2023-01-13T21:31:33.794Z,95.32
2023-01-13T21:34:03.415Z,93.70
2023-01-13T21:36:33.367Z,93.63
2023-01-13T21:39:03.592Z,95.40
2023-01-13T21:41:51.942Z,94.43
2023-01-13T21:44:42.636Z,94.46
2023-01-13T21:47:36.374Z,94.61
2023-01-13T21:50:10.590Z,93.58
2023-01-13T21:52:43.920Z,94.32
2023-01-13T21:55:30.141Z,94.70
2023-01-13T21:58:12.941Z,93.08
2023-01-13T22:00:46.563Z,94.83
2023-01-13T22:03:20.258Z,95.13
2023-01-13T22:05:58.075Z,94.89
2023-01-13T22:08:28.312Z,93.95
2023-01-13T22:10:58.641Z,94.49
2023-01-13T22:13:48.110Z,95.33
2023-01-13T22:16:20.075Z,95.25
2023-01-13T22:18:50.732Z,95.49
2023-01-13T22:21:21.227Z,95.37
2023-01-13T22:23:51.522Z,94.61
2023-01-13T22:26:22.046Z,95.40
2023-01-13T22:28:53.587Z,94.97
2023-01-13T22:31:25.049Z,94.92
2023-01-13T22:33:57.089Z,94.49
2023-01-13T22:36:27.999Z,94.96
2023-01-13T22:38:58.564Z,94.29
2023-01-13T22:41:28.808Z,95.04
2023-01-13T22:43:59.239Z,95.86
2023-01-13T22:46:29.466Z,96.32
2023-01-13T22:48:59.763Z,95.52
2023-01-13T22:51:31.679Z,95.78
2023-01-13T22:54:02.081Z,96.30
2023-01-13T22:56:32.496Z,96.17
2023-01-13T22:59:05.178Z,96.19
2023-01-13T23:01:37.176Z,96.22
2023-01-13T23:04:07.982Z,95.95
2023-01-13T23:06:38.352Z,95.75
2023-01-13T23:09:09.141Z,96.75
2023-01-13T23:11:39.676Z,96.14
2023-01-13T23:14:11.057Z,96.71
2023-01-13T23:16:42.949Z,96.52
2023-01-13T23:19:13.407Z,96.78
2023-01-13T23:21:43.810Z,96.62
2023-01-13T23:24:14.271Z,96.95
2023-01-13T23:26:44.566Z,97.00
2023-01-13T23:29:14.668Z,95.73
2023-01-13T23:31:44.803Z,97.45
2023-01-13T23:34:14.852Z,96.71
2023-01-13T23:36:45.684Z,97.22
2023-01-13T23:39:15.661Z,97.28
2023-01-13T23:41:45.660Z,97.33
2023-01-13T23:44:15.132Z,96.30
2023-01-13T23:46:45.147Z,97.88
2023-01-13T23:49:15.492Z,97.84
2023-01-13T23:51:45.695Z,97.90
2023-01-13T23:54:15.939Z,97.18
2023-01-13T23:56:46.376Z,97.52
2023-01-13T23:59:16.631Z,97.99
